Main page
METAR-TAF:

METAR-TAF

Airports :

Aghajari, Iran

latitude: 30-46N, longitude: 049-40E, elevation: 29 m

Current weather observation

The report was made 29 minutes ago, at 20:00 UTC
Wind 6 kt from the South/Southeast
Temperature 29°C
Humidity 37%
Pressure 1010 hPa
Visibility: 5000 m
widespread dust

METAR: OIAG 302000Z 15006KT 5000 DU NSC 29/13 Q1010

Time: 00:59 (20:29 UTC)


TAF: missing

Weather observations and forecasts of more than 4000 airports (METAR and TAF reports).

The available stations are represented by yellow and red dots on the map.

Hover mouse over dot to see the name of the station.

Then click to see weather observations and forecasts.

To change the map : click on the green buttons with a black cross to zoom in, on the green button with a dash to zoom out, or on the green arrows for adjacent maps.


METAR-TAF: